sensor_id;sensor_type;location;lat;lon;timestamp;P1;durP1;ratioP1;P2;durP2;ratioP2
5801;SDS011;2927;49.366;8.530;2023-06-14T00:00:37;7.50;;;4.97;;
5801;SDS011;2927;49.366;8.530;2023-06-14T00:03:09;8.90;;;5.03;;
5801;SDS011;2927;49.366;8.530;2023-06-14T00:05:36;7.50;;;4.80;;
5801;SDS011;2927;49.366;8.530;2023-06-14T00:08:08;10.43;;;4.70;;
5801;SDS011;2927;49.366;8.530;2023-06-14T00:10:34;9.30;;;4.60;;
5801;SDS011;2927;49.366;8.530;2023-06-14T00:13:01;7.67;;;4.60;;
5801;SDS011;2927;49.366;8.530;2023-06-14T00:15:27;7.20;;;4.43;;
5801;SDS011;2927;49.366;8.530;2023-06-14T00:17:53;6.10;;;4.40;;
5801;SDS011;2927;49.366;8.530;2023-06-14T00:20:20;9.57;;;4.73;;
5801;SDS011;2927;49.366;8.530;2023-06-14T00:22:45;6.50;;;4.80;;
5801;SDS011;2927;49.366;8.530;2023-06-14T00:25:11;5.93;;;4.10;;
5801;SDS011;2927;49.366;8.530;2023-06-14T00:27:37;4.67;;;4.23;;
5801;SDS011;2927;49.366;8.530;2023-06-14T00:30:03;9.90;;;4.57;;
5801;SDS011;2927;49.366;8.530;2023-06-14T00:32:28;5.83;;;4.57;;
5801;SDS011;2927;49.366;8.530;2023-06-14T00:34:54;9.30;;;3.77;;
5801;SDS011;2927;49.366;8.530;2023-06-14T00:37:20;6.97;;;4.30;;
5801;SDS011;2927;49.366;8.530;2023-06-14T00:39:45;5.60;;;5.03;;
5801;SDS011;2927;49.366;8.530;2023-06-14T00:42:11;4.90;;;4.43;;
5801;SDS011;2927;49.366;8.530;2023-06-14T00:44:47;5.77;;;4.37;;
5801;SDS011;2927;49.366;8.530;2023-06-14T00:47:13;7.60;;;5.43;;
5801;SDS011;2927;49.366;8.530;2023-06-14T00:49:38;8.43;;;4.20;;
5801;SDS011;2927;49.366;8.530;2023-06-14T00:52:04;7.20;;;4.33;;
5801;SDS011;2927;49.366;8.530;2023-06-14T00:54:31;4.90;;;4.47;;
5801;SDS011;2927;49.366;8.530;2023-06-14T00:56:56;6.50;;;4.50;;
5801;SDS011;2927;49.366;8.530;2023-06-14T00:59:22;4.30;;;3.93;;
5801;SDS011;2927;49.366;8.530;2023-06-14T01:01:48;7.10;;;4.40;;
5801;SDS011;2927;49.366;8.530;2023-06-14T01:04:13;4.57;;;4.17;;
5801;SDS011;2927;49.366;8.530;2023-06-14T01:12:05;6.97;;;4.60;;
5801;SDS011;2927;49.366;8.530;2023-06-14T01:14:36;8.10;;;4.13;;
5801;SDS011;2927;49.366;8.530;2023-06-14T01:17:03;10.03;;;4.57;;
5801;SDS011;2927;49.366;8.530;2023-06-14T01:19:30;6.87;;;5.07;;
5801;SDS011;2927;49.366;8.530;2023-06-14T01:21:59;4.67;;;4.20;;
5801;SDS011;2927;49.366;8.530;2023-06-14T01:24:26;5.23;;;3.93;;
5801;SDS011;2927;49.366;8.530;2023-06-14T01:26:56;8.70;;;4.03;;
5801;SDS011;2927;49.366;8.530;2023-06-14T01:29:23;9.60;;;4.23;;
5801;SDS011;2927;49.366;8.530;2023-06-14T01:31:53;9.57;;;4.87;;
5801;SDS011;2927;49.366;8.530;2023-06-14T01:34:19;7.63;;;5.13;;
5801;SDS011;2927;49.366;8.530;2023-06-14T01:36:44;4.80;;;4.40;;
5801;SDS011;2927;49.366;8.530;2023-06-14T01:39:13;7.77;;;5.00;;
5801;SDS011;2927;49.366;8.530;2023-06-14T01:41:40;13.10;;;5.03;;
5801;SDS011;2927;49.366;8.530;2023-06-14T01:44:06;9.40;;;4.73;;
5801;SDS011;2927;49.366;8.530;2023-06-14T01:46:32;11.30;;;5.80;;
5801;SDS011;2927;49.366;8.530;2023-06-14T01:48:57;5.47;;;4.20;;
5801;SDS011;2927;49.366;8.530;2023-06-14T01:51:23;7.90;;;5.10;;
5801;SDS011;2927;49.366;8.530;2023-06-14T01:53:49;5.63;;;4.80;;
5801;SDS011;2927;49.366;8.530;2023-06-14T01:56:15;6.10;;;4.37;;
5801;SDS011;2927;49.366;8.530;2023-06-14T01:58:41;7.87;;;4.50;;
5801;SDS011;2927;49.366;8.530;2023-06-14T02:01:06;6.37;;;5.13;;
5801;SDS011;2927;49.366;8.530;2023-06-14T02:03:32;6.30;;;4.20;;
5801;SDS011;2927;49.366;8.530;2023-06-14T02:05:58;5.13;;;4.40;;
5801;SDS011;2927;49.366;8.530;2023-06-14T02:08:23;6.77;;;5.03;;
5801;SDS011;2927;49.366;8.530;2023-06-14T02:10:49;8.03;;;4.50;;
5801;SDS011;2927;49.366;8.530;2023-06-14T02:13:15;4.60;;;4.20;;
5801;SDS011;2927;49.366;8.530;2023-06-14T02:15:40;7.10;;;4.67;;
5801;SDS011;2927;49.366;8.530;2023-06-14T02:18:08;12.97;;;5.43;;
5801;SDS011;2927;49.366;8.530;2023-06-14T02:20:34;18.30;;;5.50;;
5801;SDS011;2927;49.366;8.530;2023-06-14T02:23:00;12.33;;;4.40;;
5801;SDS011;2927;49.366;8.530;2023-06-14T02:25:26;5.70;;;4.07;;
5801;SDS011;2927;49.366;8.530;2023-06-14T02:27:53;13.00;;;4.83;;
5801;SDS011;2927;49.366;8.530;2023-06-14T02:30:20;15.57;;;4.87;;
5801;SDS011;2927;49.366;8.530;2023-06-14T02:32:45;16.70;;;5.20;;
5801;SDS011;2927;49.366;8.530;2023-06-14T02:35:13;11.27;;;5.40;;
5801;SDS011;2927;49.366;8.530;2023-06-14T02:37:39;11.77;;;5.30;;
5801;SDS011;2927;49.366;8.530;2023-06-14T02:40:05;7.77;;;5.07;;
5801;SDS011;2927;49.366;8.530;2023-06-14T02:42:31;5.87;;;4.70;;
5801;SDS011;2927;49.366;8.530;2023-06-14T02:44:56;5.90;;;5.20;;
5801;SDS011;2927;49.366;8.530;2023-06-14T02:47:22;5.53;;;5.00;;
5801;SDS011;2927;49.366;8.530;2023-06-14T02:49:47;11.80;;;5.00;;
5801;SDS011;2927;49.366;8.530;2023-06-14T02:52:13;9.40;;;6.20;;
5801;SDS011;2927;49.366;8.530;2023-06-14T02:54:39;7.53;;;5.83;;
5801;SDS011;2927;49.366;8.530;2023-06-14T02:57:05;12.97;;;5.60;;
5801;SDS011;2927;49.366;8.530;2023-06-14T02:59:32;8.87;;;5.60;;
5801;SDS011;2927;49.366;8.530;2023-06-14T03:01:58;6.07;;;5.47;;
5801;SDS011;2927;49.366;8.530;2023-06-14T03:04:24;6.60;;;5.43;;
5801;SDS011;2927;49.366;8.530;2023-06-14T03:06:50;8.83;;;5.30;;
5801;SDS011;2927;49.366;8.530;2023-06-14T03:09:16;7.33;;;5.33;;
5801;SDS011;2927;49.366;8.530;2023-06-14T03:11:42;5.47;;;4.57;;
5801;SDS011;2927;49.366;8.530;2023-06-14T03:14:07;5.97;;;5.37;;
5801;SDS011;2927;49.366;8.530;2023-06-14T03:16:33;5.90;;;5.30;;
5801;SDS011;2927;49.366;8.530;2023-06-14T03:18:59;6.80;;;5.90;;
5801;SDS011;2927;49.366;8.530;2023-06-14T03:21:25;6.97;;;4.57;;
5801;SDS011;2927;49.366;8.530;2023-06-14T03:23:51;8.50;;;5.70;;
5801;SDS011;2927;49.366;8.530;2023-06-14T03:26:18;8.97;;;5.07;;
5801;SDS011;2927;49.366;8.530;2023-06-14T03:28:44;11.60;;;6.27;;
5801;SDS011;2927;49.366;8.530;2023-06-14T03:31:10;8.20;;;5.90;;
5801;SDS011;2927;49.366;8.530;2023-06-14T03:33:36;13.13;;;5.90;;
5801;SDS011;2927;49.366;8.530;2023-06-14T03:36:02;6.17;;;5.23;;
5801;SDS011;2927;49.366;8.530;2023-06-14T03:38:28;6.63;;;5.70;;
5801;SDS011;2927;49.366;8.530;2023-06-14T03:40:53;14.40;;;6.10;;
5801;SDS011;2927;49.366;8.530;2023-06-14T03:43:19;10.73;;;6.60;;
5801;SDS011;2927;49.366;8.530;2023-06-14T03:45:45;9.00;;;5.80;;
5801;SDS011;2927;49.366;8.530;2023-06-14T03:48:10;9.53;;;5.63;;
5801;SDS011;2927;49.366;8.530;2023-06-14T03:50:36;8.93;;;6.07;;
5801;SDS011;2927;49.366;8.530;2023-06-14T03:53:05;21.33;;;6.13;;
5801;SDS011;2927;49.366;8.530;2023-06-14T03:55:31;12.40;;;5.20;;
5801;SDS011;2927;49.366;8.530;2023-06-14T03:57:58;10.97;;;5.97;;
5801;SDS011;2927;49.366;8.530;2023-06-14T04:00:23;12.83;;;5.73;;
5801;SDS011;2927;49.366;8.530;2023-06-14T04:02:49;10.93;;;6.00;;
5801;SDS011;2927;49.366;8.530;2023-06-14T04:05:14;11.37;;;7.10;;
5801;SDS011;2927;49.366;8.530;2023-06-14T04:07:41;12.63;;;6.10;;
5801;SDS011;2927;49.366;8.530;2023-06-14T04:10:10;15.70;;;5.90;;
5801;SDS011;2927;49.366;8.530;2023-06-14T04:12:36;10.07;;;6.30;;
5801;SDS011;2927;49.366;8.530;2023-06-14T04:15:02;9.70;;;5.90;;
5801;SDS011;2927;49.366;8.530;2023-06-14T04:17:28;9.97;;;6.37;;
5801;SDS011;2927;49.366;8.530;2023-06-14T04:19:54;8.43;;;6.20;;
5801;SDS011;2927;49.366;8.530;2023-06-14T04:22:20;13.77;;;5.73;;
5801;SDS011;2927;49.366;8.530;2023-06-14T04:24:45;10.53;;;6.00;;
5801;SDS011;2927;49.366;8.530;2023-06-14T04:27:11;8.73;;;6.60;;
5801;SDS011;2927;49.366;8.530;2023-06-14T04:29:36;10.03;;;6.27;;
5801;SDS011;2927;49.366;8.530;2023-06-14T04:32:02;10.63;;;6.20;;
5801;SDS011;2927;49.366;8.530;2023-06-14T04:34:28;12.73;;;6.87;;
5801;SDS011;2927;49.366;8.530;2023-06-14T04:36:59;17.30;;;6.07;;
5801;SDS011;2927;49.366;8.530;2023-06-14T04:39:26;9.73;;;6.03;;
5801;SDS011;2927;49.366;8.530;2023-06-14T04:41:52;8.03;;;5.40;;
5801;SDS011;2927;49.366;8.530;2023-06-14T04:44:21;12.10;;;6.63;;
5801;SDS011;2927;49.366;8.530;2023-06-14T04:46:55;10.40;;;6.73;;
5801;SDS011;2927;49.366;8.530;2023-06-14T04:49:21;13.50;;;7.33;;
5801;SDS011;2927;49.366;8.530;2023-06-14T04:51:48;8.40;;;6.40;;
5801;SDS011;2927;49.366;8.530;2023-06-14T04:54:22;10.57;;;6.40;;
5801;SDS011;2927;49.366;8.530;2023-06-14T04:56:50;8.90;;;6.00;;
5801;SDS011;2927;49.366;8.530;2023-06-14T04:59:16;6.97;;;5.63;;
5801;SDS011;2927;49.366;8.530;2023-06-14T05:01:42;8.00;;;6.47;;
5801;SDS011;2927;49.366;8.530;2023-06-14T05:04:12;9.40;;;5.93;;
5801;SDS011;2927;49.366;8.530;2023-06-14T05:06:38;10.00;;;6.57;;
5801;SDS011;2927;49.366;8.530;2023-06-14T05:09:04;12.23;;;6.10;;
5801;SDS011;2927;49.366;8.530;2023-06-14T05:11:29;12.20;;;6.73;;
5801;SDS011;2927;49.366;8.530;2023-06-14T05:13:55;11.00;;;6.87;;
5801;SDS011;2927;49.366;8.530;2023-06-14T05:16:23;7.50;;;5.37;;
5801;SDS011;2927;49.366;8.530;2023-06-14T05:18:50;15.00;;;7.23;;
5801;SDS011;2927;49.366;8.530;2023-06-14T05:21:17;12.07;;;5.73;;
5801;SDS011;2927;49.366;8.530;2023-06-14T05:23:43;10.70;;;5.90;;
5801;SDS011;2927;49.366;8.530;2023-06-14T05:26:10;14.53;;;6.10;;
5801;SDS011;2927;49.366;8.530;2023-06-14T05:28:36;9.33;;;6.30;;
5801;SDS011;2927;49.366;8.530;2023-06-14T05:31:01;11.60;;;5.17;;
5801;SDS011;2927;49.366;8.530;2023-06-14T05:33:27;10.40;;;5.50;;
5801;SDS011;2927;49.366;8.530;2023-06-14T05:35:53;7.60;;;6.37;;
5801;SDS011;2927;49.366;8.530;2023-06-14T05:38:18;9.20;;;6.03;;
5801;SDS011;2927;49.366;8.530;2023-06-14T05:40:44;14.17;;;6.13;;
5801;SDS011;2927;49.366;8.530;2023-06-14T05:43:10;7.03;;;4.93;;
5801;SDS011;2927;49.366;8.530;2023-06-14T05:45:35;6.70;;;6.00;;
5801;SDS011;2927;49.366;8.530;2023-06-14T05:48:01;7.67;;;5.37;;
5801;SDS011;2927;49.366;8.530;2023-06-14T05:50:26;8.27;;;5.73;;
5801;SDS011;2927;49.366;8.530;2023-06-14T05:52:53;13.43;;;5.67;;
5801;SDS011;2927;49.366;8.530;2023-06-14T05:55:18;11.27;;;6.17;;
5801;SDS011;2927;49.366;8.530;2023-06-14T05:57:44;8.23;;;4.73;;
5801;SDS011;2927;49.366;8.530;2023-06-14T06:00:10;7.47;;;5.70;;
5801;SDS011;2927;49.366;8.530;2023-06-14T06:02:39;5.47;;;4.80;;
5801;SDS011;2927;49.366;8.530;2023-06-14T06:05:11;5.80;;;5.10;;
5801;SDS011;2927;49.366;8.530;2023-06-14T06:07:37;8.40;;;6.13;;
5801;SDS011;2927;49.366;8.530;2023-06-14T06:10:05;11.18;;;5.85;;
5801;SDS011;2927;49.366;8.530;2023-06-14T06:12:31;10.65;;;5.85;;
5801;SDS011;2927;49.366;8.530;2023-06-14T06:14:57;5.20;;;4.70;;
5801;SDS011;2927;49.366;8.530;2023-06-14T06:17:24;5.10;;;4.10;;
5801;SDS011;2927;49.366;8.530;2023-06-14T06:19:50;4.78;;;4.35;;
5801;SDS011;2927;49.366;8.530;2023-06-14T06:22:16;7.93;;;4.93;;
5801;SDS011;2927;49.366;8.530;2023-06-14T06:24:42;6.90;;;4.38;;
5801;SDS011;2927;49.366;8.530;2023-06-14T06:27:07;10.27;;;4.63;;
5801;SDS011;2927;49.366;8.530;2023-06-14T06:29:33;5.80;;;4.47;;
5801;SDS011;2927;49.366;8.530;2023-06-14T06:32:00;5.43;;;4.50;;
5801;SDS011;2927;49.366;8.530;2023-06-14T06:34:26;5.05;;;4.70;;
5801;SDS011;2927;49.366;8.530;2023-06-14T06:36:52;6.13;;;4.45;;
5801;SDS011;2927;49.366;8.530;2023-06-14T06:39:17;9.93;;;4.50;;
5801;SDS011;2927;49.366;8.530;2023-06-14T06:41:43;5.70;;;4.97;;
5801;SDS011;2927;49.366;8.530;2023-06-14T06:44:08;6.80;;;4.95;;
5801;SDS011;2927;49.366;8.530;2023-06-14T06:46:36;4.80;;;4.40;;
5801;SDS011;2927;49.366;8.530;2023-06-14T06:49:06;5.10;;;4.80;;
5801;SDS011;2927;49.366;8.530;2023-06-14T06:51:32;5.57;;;4.60;;
5801;SDS011;2927;49.366;8.530;2023-06-14T06:53:57;6.10;;;4.47;;
5801;SDS011;2927;49.366;8.530;2023-06-14T06:56:23;10.77;;;5.07;;
5801;SDS011;2927;49.366;8.530;2023-06-14T06:58:49;7.57;;;4.82;;
5801;SDS011;2927;49.366;8.530;2023-06-14T07:01:16;6.15;;;4.97;;
5801;SDS011;2927;49.366;8.530;2023-06-14T07:03:42;6.50;;;5.43;;
5801;SDS011;2927;49.366;8.530;2023-06-14T07:06:08;6.03;;;4.20;;
5801;SDS011;2927;49.366;8.530;2023-06-14T07:08:34;10.88;;;4.57;;
5801;SDS011;2927;49.366;8.530;2023-06-14T07:11:00;12.95;;;4.30;;
5801;SDS011;2927;49.366;8.530;2023-06-14T07:13:27;5.03;;;4.60;;
5801;SDS011;2927;49.366;8.530;2023-06-14T07:15:57;5.38;;;4.90;;
5801;SDS011;2927;49.366;8.530;2023-06-14T07:18:24;8.18;;;4.45;;
5801;SDS011;2927;49.366;8.530;2023-06-14T07:20:50;5.55;;;4.28;;
5801;SDS011;2927;49.366;8.530;2023-06-14T07:23:15;8.75;;;4.75;;
5801;SDS011;2927;49.366;8.530;2023-06-14T07:25:41;10.50;;;4.55;;
5801;SDS011;2927;49.366;8.530;2023-06-14T07:28:06;4.55;;;4.25;;
5801;SDS011;2927;49.366;8.530;2023-06-14T07:30:32;9.52;;;4.95;;
5801;SDS011;2927;49.366;8.530;2023-06-14T07:32:57;5.00;;;4.20;;
5801;SDS011;2927;49.366;8.530;2023-06-14T07:35:23;4.70;;;4.30;;
5801;SDS011;2927;49.366;8.530;2023-06-14T07:37:48;5.00;;;4.70;;
5801;SDS011;2927;49.366;8.530;2023-06-14T07:40:15;3.85;;;3.47;;
5801;SDS011;2927;49.366;8.530;2023-06-14T07:42:40;4.63;;;4.30;;
5801;SDS011;2927;49.366;8.530;2023-06-14T07:45:07;5.20;;;4.50;;
5801;SDS011;2927;49.366;8.530;2023-06-14T07:47:33;7.18;;;5.20;;
5801;SDS011;2927;49.366;8.530;2023-06-14T07:49:58;6.65;;;4.53;;
5801;SDS011;2927;49.366;8.530;2023-06-14T07:52:24;4.63;;;4.38;;
5801;SDS011;2927;49.366;8.530;2023-06-14T07:54:50;5.68;;;4.95;;
5801;SDS011;2927;49.366;8.530;2023-06-14T07:57:15;4.55;;;3.60;;
5801;SDS011;2927;49.366;8.530;2023-06-14T07:59:41;3.38;;;3.28;;
5801;SDS011;2927;49.366;8.530;2023-06-14T08:02:06;4.65;;;4.22;;
5801;SDS011;2927;49.366;8.530;2023-06-14T08:04:32;6.25;;;3.38;;
5801;SDS011;2927;49.366;8.530;2023-06-14T08:07:01;8.85;;;3.55;;
5801;SDS011;2927;49.366;8.530;2023-06-14T08:09:26;4.45;;;3.35;;
5801;SDS011;2927;49.366;8.530;2023-06-14T08:11:54;3.83;;;3.63;;
5801;SDS011;2927;49.366;8.530;2023-06-14T08:14:19;4.03;;;3.65;;
5801;SDS011;2927;49.366;8.530;2023-06-14T08:16:45;3.72;;;3.47;;
5801;SDS011;2927;49.366;8.530;2023-06-14T08:19:10;3.75;;;3.40;;
5801;SDS011;2927;49.366;8.530;2023-06-14T08:21:36;5.43;;;3.20;;
5801;SDS011;2927;49.366;8.530;2023-06-14T08:24:02;7.63;;;3.58;;
5801;SDS011;2927;49.366;8.530;2023-06-14T08:26:28;4.00;;;3.67;;
5801;SDS011;2927;49.366;8.530;2023-06-14T08:28:55;3.65;;;3.42;;
5801;SDS011;2927;49.366;8.530;2023-06-14T08:31:20;4.13;;;3.80;;
5801;SDS011;2927;49.366;8.530;2023-06-14T08:33:46;4.93;;;4.38;;
5801;SDS011;2927;49.366;8.530;2023-06-14T08:36:12;6.00;;;5.10;;
5801;SDS011;2927;49.366;8.530;2023-06-14T08:38:38;7.13;;;4.70;;
5801;SDS011;2927;49.366;8.530;2023-06-14T08:41:04;6.00;;;4.07;;
5801;SDS011;2927;49.366;8.530;2023-06-14T08:43:34;2.97;;;2.80;;
5801;SDS011;2927;49.366;8.530;2023-06-14T08:46:03;3.05;;;2.83;;
5801;SDS011;2927;49.366;8.530;2023-06-14T08:48:31;4.68;;;3.33;;
5801;SDS011;2927;49.366;8.530;2023-06-14T08:51:01;3.33;;;3.13;;
5801;SDS011;2927;49.366;8.530;2023-06-14T08:53:30;4.43;;;3.47;;
5801;SDS011;2927;49.366;8.530;2023-06-14T08:55:57;3.80;;;3.47;;
5801;SDS011;2927;49.366;8.530;2023-06-14T08:58:26;2.90;;;2.70;;
5801;SDS011;2927;49.366;8.530;2023-06-14T09:00:54;2.88;;;2.60;;
5801;SDS011;2927;49.366;8.530;2023-06-14T09:03:20;4.95;;;2.72;;
5801;SDS011;2927;49.366;8.530;2023-06-14T09:05:47;7.05;;;3.70;;
5801;SDS011;2927;49.366;8.530;2023-06-14T09:08:13;3.58;;;3.13;;
5801;SDS011;2927;49.366;8.530;2023-06-14T09:10:39;3.08;;;2.92;;
5801;SDS011;2927;49.366;8.530;2023-06-14T09:13:05;3.45;;;3.10;;
5801;SDS011;2927;49.366;8.530;2023-06-14T09:15:31;2.95;;;2.60;;
5801;SDS011;2927;49.366;8.530;2023-06-14T09:17:57;2.88;;;2.75;;
5801;SDS011;2927;49.366;8.530;2023-06-14T09:20:23;6.00;;;3.60;;
5801;SDS011;2927;49.366;8.530;2023-06-14T09:22:49;3.60;;;2.80;;
5801;SDS011;2927;49.366;8.530;2023-06-14T09:25:15;3.97;;;3.67;;
5801;SDS011;2927;49.366;8.530;2023-06-14T09:27:41;6.38;;;3.33;;
5801;SDS011;2927;49.366;8.530;2023-06-14T09:30:08;7.40;;;3.05;;
5801;SDS011;2927;49.366;8.530;2023-06-14T09:32:41;2.75;;;2.50;;
5801;SDS011;2927;49.366;8.530;2023-06-14T09:35:06;2.80;;;2.60;;
5801;SDS011;2927;49.366;8.530;2023-06-14T09:37:33;3.50;;;3.25;;
5801;SDS011;2927;49.366;8.530;2023-06-14T09:39:59;3.47;;;2.90;;
5801;SDS011;2927;49.366;8.530;2023-06-14T09:42:25;5.13;;;3.53;;
5801;SDS011;2927;49.366;8.530;2023-06-14T09:44:52;4.57;;;3.08;;
5801;SDS011;2927;49.366;8.530;2023-06-14T09:47:19;7.15;;;3.00;;
5801;SDS011;2927;49.366;8.530;2023-06-14T09:49:45;3.20;;;2.85;;
5801;SDS011;2927;49.366;8.530;2023-06-14T09:52:12;3.08;;;2.85;;
5801;SDS011;2927;49.366;8.530;2023-06-14T09:54:43;4.07;;;3.58;;
5801;SDS011;2927;49.366;8.530;2023-06-14T09:57:14;3.10;;;2.95;;
5801;SDS011;2927;49.366;8.530;2023-06-14T09:59:52;2.90;;;2.70;;
5801;SDS011;2927;49.366;8.530;2023-06-14T10:02:22;5.35;;;2.80;;
5801;SDS011;2927;49.366;8.530;2023-06-14T10:07:56;9.90;;;2.97;;
5801;SDS011;2927;49.366;8.530;2023-06-14T10:10:25;4.03;;;3.63;;
5801;SDS011;2927;49.366;8.530;2023-06-14T10:12:50;4.57;;;2.72;;
5801;SDS011;2927;49.366;8.530;2023-06-14T10:15:19;2.88;;;2.67;;
5801;SDS011;2927;49.366;8.530;2023-06-14T10:17:52;4.32;;;2.80;;
5801;SDS011;2927;49.366;8.530;2023-06-14T10:20:30;3.85;;;2.60;;
5801;SDS011;2927;49.366;8.530;2023-06-14T10:23:13;3.95;;;2.42;;
5801;SDS011;2927;49.366;8.530;2023-06-14T10:25:43;9.30;;;3.10;;
5801;SDS011;2927;49.366;8.530;2023-06-14T10:28:19;6.60;;;2.72;;
5801;SDS011;2927;49.366;8.530;2023-06-14T10:31:01;3.95;;;3.58;;
5801;SDS011;2927;49.366;8.530;2023-06-14T10:33:35;8.38;;;3.42;;
5801;SDS011;2927;49.366;8.530;2023-06-14T10:38:56;3.40;;;3.10;;
5801;SDS011;2927;49.366;8.530;2023-06-14T10:41:36;5.88;;;3.60;;
5801;SDS011;2927;49.366;8.530;2023-06-14T10:46:38;3.20;;;2.95;;
5801;SDS011;2927;49.366;8.530;2023-06-14T10:49:05;3.00;;;2.80;;
5801;SDS011;2927;49.366;8.530;2023-06-14T10:51:52;3.83;;;3.47;;
5801;SDS011;2927;49.366;8.530;2023-06-14T10:54:20;4.30;;;3.47;;
5801;SDS011;2927;49.366;8.530;2023-06-14T10:56:50;5.68;;;3.20;;
5801;SDS011;2927;49.366;8.530;2023-06-14T10:59:17;3.50;;;3.00;;
5801;SDS011;2927;49.366;8.530;2023-06-14T11:04:49;4.38;;;3.33;;
5801;SDS011;2927;49.366;8.530;2023-06-14T11:12:25;3.97;;;3.53;;
5801;SDS011;2927;49.366;8.530;2023-06-14T11:14:54;6.30;;;3.43;;
5801;SDS011;2927;49.366;8.530;2023-06-14T11:17:20;5.07;;;3.57;;
5801;SDS011;2927;49.366;8.530;2023-06-14T11:19:45;3.80;;;3.50;;
5801;SDS011;2927;49.366;8.530;2023-06-14T11:22:11;4.40;;;3.10;;
5801;SDS011;2927;49.366;8.530;2023-06-14T11:24:37;9.53;;;4.13;;
5801;SDS011;2927;49.366;8.530;2023-06-14T11:27:03;5.23;;;3.10;;
5801;SDS011;2927;49.366;8.530;2023-06-14T11:29:29;7.73;;;4.00;;
5801;SDS011;2927;49.366;8.530;2023-06-14T11:31:55;3.70;;;3.40;;
5801;SDS011;2927;49.366;8.530;2023-06-14T11:34:20;4.33;;;4.00;;
5801;SDS011;2927;49.366;8.530;2023-06-14T11:36:46;8.73;;;3.80;;
5801;SDS011;2927;49.366;8.530;2023-06-14T11:39:12;4.27;;;3.07;;
5801;SDS011;2927;49.366;8.530;2023-06-14T11:41:44;4.37;;;3.70;;
5801;SDS011;2927;49.366;8.530;2023-06-14T11:44:10;4.10;;;3.10;;
5801;SDS011;2927;49.366;8.530;2023-06-14T11:46:36;10.17;;;4.37;;
5801;SDS011;2927;49.366;8.530;2023-06-14T11:49:03;3.80;;;3.50;;
5801;SDS011;2927;49.366;8.530;2023-06-14T11:51:30;7.73;;;3.30;;
5801;SDS011;2927;49.366;8.530;2023-06-14T11:53:57;3.30;;;2.77;;
5801;SDS011;2927;49.366;8.530;2023-06-14T11:56:23;3.23;;;2.97;;
5801;SDS011;2927;49.366;8.530;2023-06-14T11:58:50;3.90;;;3.33;;
5801;SDS011;2927;49.366;8.530;2023-06-14T12:01:16;4.10;;;3.50;;
5801;SDS011;2927;49.366;8.530;2023-06-14T12:03:48;4.33;;;3.93;;
5801;SDS011;2927;49.366;8.530;2023-06-14T12:06:15;4.00;;;2.90;;
5801;SDS011;2927;49.366;8.530;2023-06-14T12:08:43;5.70;;;3.40;;
5801;SDS011;2927;49.366;8.530;2023-06-14T12:11:10;21.27;;;4.70;;
5801;SDS011;2927;49.366;8.530;2023-06-14T12:13:38;5.37;;;3.10;;
5801;SDS011;2927;49.366;8.530;2023-06-14T12:16:06;3.60;;;3.30;;
5801;SDS011;2927;49.366;8.530;2023-06-14T12:18:36;8.07;;;4.53;;
5801;SDS011;2927;49.366;8.530;2023-06-14T12:21:06;5.27;;;2.40;;
5801;SDS011;2927;49.366;8.530;2023-06-14T12:23:47;5.17;;;3.33;;
5801;SDS011;2927;49.366;8.530;2023-06-14T12:26:15;3.27;;;3.07;;
5801;SDS011;2927;49.366;8.530;2023-06-14T12:28:42;3.67;;;3.37;;
5801;SDS011;2927;49.366;8.530;2023-06-14T12:31:10;10.33;;;3.50;;
5801;SDS011;2927;49.366;8.530;2023-06-14T12:33:37;5.53;;;3.33;;
5801;SDS011;2927;49.366;8.530;2023-06-14T12:36:03;3.90;;;3.37;;
5801;SDS011;2927;49.366;8.530;2023-06-14T12:38:30;4.03;;;3.13;;
5801;SDS011;2927;49.366;8.530;2023-06-14T12:40:57;6.73;;;3.20;;
5801;SDS011;2927;49.366;8.530;2023-06-14T12:43:22;4.30;;;3.90;;
5801;SDS011;2927;49.366;8.530;2023-06-14T12:45:48;3.27;;;3.07;;
5801;SDS011;2927;49.366;8.530;2023-06-14T12:48:14;4.27;;;3.20;;
5801;SDS011;2927;49.366;8.530;2023-06-14T12:50:40;3.43;;;3.23;;
5801;SDS011;2927;49.366;8.530;2023-06-14T12:53:06;8.90;;;3.67;;
5801;SDS011;2927;49.366;8.530;2023-06-14T12:55:32;5.93;;;3.40;;
5801;SDS011;2927;49.366;8.530;2023-06-14T12:57:57;3.43;;;3.13;;
5801;SDS011;2927;49.366;8.530;2023-06-14T13:00:23;3.70;;;3.50;;
5801;SDS011;2927;49.366;8.530;2023-06-14T13:02:50;3.60;;;3.40;;
5801;SDS011;2927;49.366;8.530;2023-06-14T13:05:16;4.00;;;3.00;;
5801;SDS011;2927;49.366;8.530;2023-06-14T13:07:42;3.37;;;3.07;;
5801;SDS011;2927;49.366;8.530;2023-06-14T13:10:08;4.13;;;3.73;;
5801;SDS011;2927;49.366;8.530;2023-06-14T13:12:34;3.47;;;3.00;;
5801;SDS011;2927;49.366;8.530;2023-06-14T13:14:59;5.13;;;3.57;;
5801;SDS011;2927;49.366;8.530;2023-06-14T13:17:25;4.03;;;3.33;;
5801;SDS011;2927;49.366;8.530;2023-06-14T13:19:51;3.40;;;3.10;;
5801;SDS011;2927;49.366;8.530;2023-06-14T13:22:16;3.60;;;3.33;;
5801;SDS011;2927;49.366;8.530;2023-06-14T13:24:42;3.47;;;3.27;;
5801;SDS011;2927;49.366;8.530;2023-06-14T13:27:07;4.30;;;3.20;;
5801;SDS011;2927;49.366;8.530;2023-06-14T13:29:33;3.37;;;3.07;;
5801;SDS011;2927;49.366;8.530;2023-06-14T13:32:00;6.60;;;3.87;;
5801;SDS011;2927;49.366;8.530;2023-06-14T13:34:26;4.53;;;3.20;;
5801;SDS011;2927;49.366;8.530;2023-06-14T13:36:52;4.10;;;3.70;;
5801;SDS011;2927;49.366;8.530;2023-06-14T13:39:18;4.10;;;3.70;;
5801;SDS011;2927;49.366;8.530;2023-06-14T13:41:44;3.47;;;3.13;;
5801;SDS011;2927;49.366;8.530;2023-06-14T13:44:09;4.10;;;3.17;;
5801;SDS011;2927;49.366;8.530;2023-06-14T13:46:39;4.93;;;3.20;;
5801;SDS011;2927;49.366;8.530;2023-06-14T13:49:07;3.10;;;2.90;;
5801;SDS011;2927;49.366;8.530;2023-06-14T13:51:33;8.60;;;3.03;;
5801;SDS011;2927;49.366;8.530;2023-06-14T13:53:59;4.00;;;3.60;;
5801;SDS011;2927;49.366;8.530;2023-06-14T13:56:26;4.93;;;3.57;;
5801;SDS011;2927;49.366;8.530;2023-06-14T13:58:51;6.57;;;3.90;;
5801;SDS011;2927;49.366;8.530;2023-06-14T14:01:17;4.30;;;3.90;;
5801;SDS011;2927;49.366;8.530;2023-06-14T14:03:44;4.73;;;3.90;;
5801;SDS011;2927;49.366;8.530;2023-06-14T14:06:11;3.80;;;3.20;;
5801;SDS011;2927;49.366;8.530;2023-06-14T14:08:37;6.10;;;3.13;;
5801;SDS011;2927;49.366;8.530;2023-06-14T14:11:02;4.07;;;3.70;;
5801;SDS011;2927;49.366;8.530;2023-06-14T14:13:28;3.77;;;3.33;;
5801;SDS011;2927;49.366;8.530;2023-06-14T14:15:54;5.20;;;4.10;;
5801;SDS011;2927;49.366;8.530;2023-06-14T14:18:19;6.13;;;3.73;;
5801;SDS011;2927;49.366;8.530;2023-06-14T14:20:46;4.63;;;3.40;;
5801;SDS011;2927;49.366;8.530;2023-06-14T14:23:11;6.20;;;3.70;;
5801;SDS011;2927;49.366;8.530;2023-06-14T14:25:37;4.47;;;3.60;;
5801;SDS011;2927;49.366;8.530;2023-06-14T14:28:03;3.73;;;3.47;;
5801;SDS011;2927;49.366;8.530;2023-06-14T14:30:29;6.63;;;4.00;;
5801;SDS011;2927;49.366;8.530;2023-06-14T14:32:55;5.00;;;4.10;;
5801;SDS011;2927;49.366;8.530;2023-06-14T14:35:21;4.70;;;4.00;;
5801;SDS011;2927;49.366;8.530;2023-06-14T14:37:48;4.00;;;3.70;;
5801;SDS011;2927;49.366;8.530;2023-06-14T14:40:14;7.70;;;3.63;;
5801;SDS011;2927;49.366;8.530;2023-06-14T14:42:40;5.93;;;3.60;;
5801;SDS011;2927;49.366;8.530;2023-06-14T14:45:05;4.30;;;3.90;;
5801;SDS011;2927;49.366;8.530;2023-06-14T14:47:31;4.23;;;3.83;;
5801;SDS011;2927;49.366;8.530;2023-06-14T14:49:57;6.60;;;3.73;;
5801;SDS011;2927;49.366;8.530;2023-06-14T14:52:23;3.53;;;3.30;;
5801;SDS011;2927;49.366;8.530;2023-06-14T14:54:49;4.90;;;4.40;;
5801;SDS011;2927;49.366;8.530;2023-06-14T14:57:15;4.13;;;3.73;;
5801;SDS011;2927;49.366;8.530;2023-06-14T14:59:41;4.07;;;3.40;;
5801;SDS011;2927;49.366;8.530;2023-06-14T15:02:06;4.13;;;3.83;;
5801;SDS011;2927;49.366;8.530;2023-06-14T15:04:32;3.70;;;3.50;;
5801;SDS011;2927;49.366;8.530;2023-06-14T15:06:57;3.80;;;3.60;;
5801;SDS011;2927;49.366;8.530;2023-06-14T15:09:23;6.30;;;3.20;;
5801;SDS011;2927;49.366;8.530;2023-06-14T15:11:48;3.33;;;3.13;;
5801;SDS011;2927;49.366;8.530;2023-06-14T15:14:14;6.93;;;4.00;;
5801;SDS011;2927;49.366;8.530;2023-06-14T15:16:40;4.83;;;3.47;;
5801;SDS011;2927;49.366;8.530;2023-06-14T15:19:06;5.60;;;3.20;;
5801;SDS011;2927;49.366;8.530;2023-06-14T15:21:31;3.93;;;3.47;;
5801;SDS011;2927;49.366;8.530;2023-06-14T15:23:57;3.50;;;3.20;;
5801;SDS011;2927;49.366;8.530;2023-06-14T15:26:22;4.17;;;3.50;;
5801;SDS011;2927;49.366;8.530;2023-06-14T15:28:49;6.30;;;3.80;;
5801;SDS011;2927;49.366;8.530;2023-06-14T15:31:15;7.83;;;4.37;;